• Join FlightAware (Why Join?)
  • Login
  • US Flag 
01:59PM EDT


 

Airport Tracker/Info


-or-


 

Live Flight TrackerFlight Track Log ✈ N5352K ✈ 30-Aug-2013 ✈ KVRB - KOPF

Flight Track Log - Related Links

Times and Time Zones

All times are in EDT time to prevent confusion due to time zone crossing. See the N5352K flight status page for this flight to view local times or setup timezone preferences in your user account.

Time Position Orientation Groundspeed Altitude Reporting Facility
EDT Latitude Longitude Course Direction KTS MPH feet Rate Location/Type
06:24PM 25.9110 -80.2650 10° North  Level FlightAware
06:34PM 25.9130 -80.2810 70° East 75 86 100  Climbing FlightAware
06:35PM 25.9130 -80.2730 90° East 80 92 200 540 Climbing FlightAware
06:35PM 25.9140 -80.2640 83° East 80 92 500 720 Climbing FlightAware
06:35PM 25.9140 -80.2510 90° East 88 101 800 600 Climbing FlightAware
06:36PM 25.9150 -80.2420 83° East 92 106 1,000 360 Climbing FlightAware
06:36PM 25.9100 -80.2310 117° Southeast 98 113 1,100 120 Climbing FlightAware
06:36PM 25.9050 -80.2230 125° Southeast 95 109 1,100 -180 Level FlightAware
06:37PM 25.8990 -80.2140 127° Southeast 99 114 1,000 -240 Descending FlightAware
06:37PM 25.8980 -80.2090 103° East 99 114 1,000  Level FlightAware
06:37PM 25.8960 -80.2000 104° East 97 112 1,000  Level FlightAware
06:37PM 25.8950 -80.1960 106° East 97 112 1,000  Level FlightAware
06:38PM 25.8950 -80.1930 90° East 94 108 1,000  Level FlightAware
06:38PM 25.8960 -80.1810 85° East 94 108 1,000  Level FlightAware
06:38PM 25.8990 -80.1690 74° East 99 114 1,000 -180 Level FlightAware
06:39PM 25.9000 -80.1580 84° East 100 115 900 -180 Descending FlightAware
06:39PM 25.9010 -80.1480 84° East 95 109 900 -120 Level FlightAware
06:40PM 25.9020 -80.1290 87° East 96 110 800  Descending FlightAware
06:40PM 25.9000 -80.1190 103° East 83 96 900 180 Climbing FlightAware
06:40PM 25.8990 -80.1180 138° Southeast 83 96 900 -480 Level FlightAware
06:40PM 25.8950 -80.1170 167° South 90 104 800 -360 Descending FlightAware
06:41PM 25.8910 -80.1160 167° South 93 107 800  Level FlightAware
06:41PM 25.8870 -80.1160 180° South 93 107 800  Level FlightAware
06:41PM 25.8780 -80.1160 180° South 92 106 800  Level FlightAware
06:41PM 25.8670 -80.1160 180° South 90 104 800  Level FlightAware
06:42PM 25.8620 -80.1160 180° South 89 102 800  Level FlightAware
06:42PM 25.8530 -80.1150 174° South 93 107 800  Level FlightAware
06:42PM 25.8450 -80.1150 180° South 93 107 800  Level FlightAware
06:43PM 25.8300 -80.1160 183° South 95 109 800  Level FlightAware
06:43PM 25.8240 -80.1160 180° South 97 112 800  Level FlightAware
06:44PM 25.8120 -80.1180 189° South 96 110 800  Level FlightAware
06:44PM 25.8030 -80.1200 191° South 99 114 800  Level FlightAware
06:44PM 25.7970 -80.1210 189° South 98 113 800  Level FlightAware
06:44PM 25.7900 -80.1220 187° South 87 100 800  Level FlightAware
06:45PM 25.7820 -80.1230 186° South 83 96 800  Level FlightAware
06:45PM 25.7790 -80.1240 197° South 83 96 800  Level FlightAware
06:45PM 25.7770 -80.1240 180° South 83 96 800 -240 Level FlightAware
06:45PM 25.7670 -80.1260 190° South 84 97 700 -120 Descending FlightAware
06:46PM 25.7670 -80.1180 90° East 95 109 700  Level FlightAware
06:46PM 25.7690 -80.1170 24° Northeast 96 110 700  Level FlightAware
06:46PM 25.7820 -80.1200 348° North 102 117 700  Level FlightAware
06:46PM 25.7850 -80.1200 360° North 113 130 700  Level FlightAware
06:46PM 25.7870 -80.1210 336° Northwest 113 130 700 -240 Level FlightAware
06:47PM 25.7960 -80.1170 22° Northeast 107 123 600  Descending FlightAware
06:47PM 25.7990 -80.1150 31° Northeast 105 121 700 360 Climbing FlightAware
06:47PM 25.8030 -80.1150 360° North 101 116 700 240 Level FlightAware
06:47PM 25.8130 -80.1150 360° North 99 114 800 240 Climbing FlightAware
06:48PM 25.8250 -80.1140 North 100 115 900 240 Climbing FlightAware
06:48PM 25.8350 -80.1130 North 102 117 1,000 120 Climbing FlightAware
06:48PM 25.8460 -80.1130 360° North 101 116 1,000  Level FlightAware
06:49PM 25.8560 -80.1130 360° North 114 131 1,000  Level FlightAware
06:49PM 25.8640 -80.1130 360° North 114 131 1,000  Level FlightAware
06:49PM 25.8750 -80.1140 355° North 113 130 1,000  Level FlightAware
06:49PM 25.8790 -80.1170 326° Northwest 109 125 1,000  Level FlightAware
06:50PM 25.8850 -80.1270 304° West 109 125 1,000  Level FlightAware
06:50PM 25.8900 -80.1330 313° West 112 129 1,000  Level FlightAware
06:50PM 25.8960 -80.1420 307° West 111 128 1,000  Level FlightAware
06:51PM 25.9000 -80.1490 302° West 105 121 1,000  Level FlightAware
06:51PM 25.9000 -80.1550 270° West 102 117 1,000  Level FlightAware
06:51PM 25.9000 -80.1620 270° West 104 120 1,000  Level FlightAware
06:51PM 25.9000 -80.1760 270° West 103 119 1,000  Level FlightAware
06:52PM 25.9000 -80.1860 270° West 102 117 1,000 -180 Level FlightAware
06:52PM 25.8990 -80.1970 264° West 101 116 900 -180 Descending FlightAware
06:53PM 25.8980 -80.2090 265° West 103 119 900  Level FlightAware
06:53PM 25.8970 -80.2190 264° West 99 114 900 120 Level FlightAware
06:53PM 25.8970 -80.2270 270° West 101 116 1,000 120 Climbing FlightAware
06:54PM 25.8950 -80.2390 260° West 100 115 1,000  Level FlightAware
06:54PM 25.8910 -80.2610 259° West 101 116 1,000 -180 Level FlightAware
06:58PM 25.9000 -80.2690 321° Northwest 84 97 200 -180 Descending FlightAware
06:58PM 25.9000 -80.2630 90° East 81 93 500 780 Climbing FlightAware
06:59PM 25.8980 -80.2540 104° East 74 85 700 600 Climbing FlightAware
06:59PM 25.8930 -80.2520 160° South 82 94 900 840 Climbing FlightAware
06:59PM 25.8910 -80.2530 204° Southwest 84 97 1,000 360 Climbing FlightAware
06:59PM 25.8880 -80.2560 222° Southwest 94 108 1,000  Level FlightAware
06:59PM 25.8870 -80.2580 241° Southwest 100 115 1,000 420 Level FlightAware
07:00PM 25.8870 -80.2640 270° West 101 116 1,100 180 Climbing FlightAware
07:00PM 25.8870 -80.2720 270° West 97 112 1,100 -180 Level FlightAware
07:00PM 25.8880 -80.2850 275° West 94 108 1,000 -360 Descending FlightAware
07:01PM 25.8880 -80.2960 270° West 87 100 800 -360 Descending FlightAware
07:01PM 25.8900 -80.3070 281° West 82 94 700 -300 Descending FlightAware
07:01PM 25.8970 -80.3070 360° North 75 86 600 -660 Descending FlightAware
07:01PM 25.8980 -80.3060 42° Northeast 73 84 500 -600 Descending FlightAware
07:02PM 25.8980 -80.3040 90° East 74 85 500 -480 Level FlightAware
07:02PM 25.8990 -80.2900 85° East 65 75 200  Descending FlightAware
07:04PM 25.9000 -80.2610 90° East 84 97 600 300 Climbing FlightAware
07:04PM 25.8960 -80.2530 119° Southeast 73 84 800 660 Climbing FlightAware
07:04PM 25.8940 -80.2530 180° South 82 94 900 660 Climbing FlightAware
07:04PM 25.8890 -80.2570 216° Southwest 88 101 1,100 420 Climbing FlightAware
07:04PM 25.8880 -80.2610 254° West 96 110 1,100  Level FlightAware
07:05PM 25.8880 -80.2710 270° West 100 115 1,100  Level FlightAware
07:05PM 25.8880 -80.2810 270° West 98 113 1,100 -300 Level FlightAware
07:06PM 25.8880 -80.2940 270° West 92 106 900 -420 Descending FlightAware
07:06PM 25.8880 -80.3020 270° West 81 93 800 -480 Descending FlightAware
07:06PM 25.8920 -80.3070 312° West 85 98 600 -660 Descending FlightAware
07:07PM 25.8980 -80.2980 53° Northeast 72 83 300 -540 Descending FlightAware
07:07PM 25.8990 -80.2920 80° East 71 82 200 60 Descending FlightAware
07:08PM 25.9000 -80.2650 86° East 82 94 400 300 Climbing FlightAware
07:09PM 25.8990 -80.2560 97° East 79 91 700 840 Climbing FlightAware
07:09PM 25.8900 -80.2580 191° South 83 96 1,100 600 Climbing FlightAware
07:09PM 25.8890 -80.2630 257° West 93 107 1,100  Level FlightAware
07:10PM 25.8880 -80.2700 261° West 97 112 1,100 -120 Level FlightAware
07:10PM 25.8880 -80.2880 270° West 105 121 1,000 -120 Descending FlightAware
07:11PM 25.8890 -80.3030 274° West 105 121 1,000 -420 Level FlightAware
07:11PM 25.8890 -80.3080 270° West 73 84 700 -840 Descending FlightAware
07:11PM 25.8910 -80.3100 318° Northwest 70 81 700 -300 Level FlightAware
07:11PM 25.8940 -80.3110 343° North 70 81 600 -420 Descending FlightAware
07:12PM 25.8980 -80.3040 58° Northeast 68 78 500 -480 Descending FlightAware
07:12PM 25.8990 -80.2950 83° East 67 77 200 -180 Descending FlightAware
07:13PM 25.9000 -80.2710 84° East 52 60 200 300 Level FlightAware
07:14PM 25.8960 -80.2570 108° East 76 87 800 840 Climbing FlightAware
07:14PM 25.8950 -80.2570 180° South 69 79 800 540 Level FlightAware
07:15PM 25.8880 -80.2640 222° Southwest 94 108 1,100 360 Climbing FlightAware
07:15PM 25.8880 -80.2740 270° West 105 121 1,100  Level FlightAware
07:15PM 25.8880 -80.2820 270° West 105 121 1,100 -300 Level FlightAware
07:16PM 25.8880 -80.3010 270° West 74 85 800 -420 Descending FlightAware
07:16PM 25.8900 -80.3070 290° West 72 83 700 -240 Descending FlightAware
07:16PM 25.8930 -80.3080 343° North 81 93 700 -480 Level FlightAware
07:17PM 25.8980 -80.3030 42° Northeast 75 86 500 -720 Descending FlightAware
07:17PM 25.8980 -80.3000 90° East 70 81 400 -600 Descending FlightAware
07:17PM 25.8990 -80.2920 82° East 66 76 200 -180 Descending FlightAware
07:18PM 25.9000 -80.2700 84° East 54 62 200 300 Level FlightAware
07:19PM 25.8960 -80.2570 109° East 72 83 800 780 Climbing FlightAware
07:19PM 25.8940 -80.2570 180° South 82 94 800 480 Level FlightAware
07:19PM 25.8890 -80.2620 222° Southwest 90 104 1,000 360 Climbing FlightAware
07:20PM 25.8880 -80.2660 254° West 101 116 1,000  Level FlightAware
07:20PM 25.8880 -80.2730 270° West 104 120 1,000  Level FlightAware
07:20PM 25.8880 -80.2840 270° West 105 121 1,000 -300 Level FlightAware
07:21PM 25.8880 -80.2970 270° West 85 98 800 -360 Descending FlightAware
07:21PM 25.8890 -80.3050 278° West 77 89 700 -420 Descending FlightAware
07:21PM 25.8920 -80.3070 329° Northwest 80 92 600 -480 Descending FlightAware
07:21PM 25.8940 -80.3070 360° North 81 93 600 -480 Level FlightAware
07:21PM 25.8980 -80.3020 48° Northeast 69 79 400 -480 Descending FlightAware
07:22PM 25.8990 -80.2920 84° East 66 76 200 -240 Descending FlightAware
07:23PM 25.9000 -80.2750 77° East 72 83 100 120 Descending FlightAware
07:23PM 25.8990 -80.2650 96° East 79 91 400 900 Climbing FlightAware
07:24PM 25.8990 -80.2570 90° East 82 94 700 660 Climbing FlightAware
07:24PM 25.9050 -80.2450 61° Northeast 103 119 1,000 300 Climbing FlightAware
07:25PM 25.9150 -80.2440 North 99 114 1,000 120 Level FlightAware
07:25PM 25.9250 -80.2480 340° North 92 106 1,100 180 Climbing FlightAware
07:25PM 25.9250 -80.2490 270° West 93 107 1,100  Level FlightAware
07:25PM 25.9260 -80.2530 286° West 97 112 1,100  Level FlightAware
07:25PM 25.9260 -80.2620 270° West 97 112 1,100  Level FlightAware
07:26PM 25.9260 -80.2730 270° West 98 113 1,100  Level FlightAware
07:26PM 25.9260 -80.2830 270° West 101 116 1,100 -180 Level FlightAware
07:26PM 25.9260 -80.2940 270° West 97 112 1,000 -360 Descending FlightAware
07:27PM 25.9250 -80.3090 266° West 77 89 800 -480 Descending FlightAware
07:27PM 25.9250 -80.3110 270° West 71 82 700 -600 Descending FlightAware
07:27PM 25.9240 -80.3120 222° Southwest 68 78 700  Level FlightAware
07:27PM 25.9210 -80.3120 180° South 64 74 700 -240 Level FlightAware
07:28PM 25.9150 -80.3110 171° South 64 74 600 -420 Descending FlightAware
07:28PM 25.9130 -80.3080 127° Southeast 65 75 500 -540 Descending FlightAware
07:28PM 25.9120 -80.3040 106° East 67 77 400 -480 Descending FlightAware
07:29PM 25.9120 -80.2960 90° East 68 78 200 -540 Descending FlightAware